PWSweather.com
Personal Weather Stations
Station Observations

YeovilGB

Lat: 50.949, Lon: -2.627

Elevation: 70

Station Type: Vantage Pro

http://www.yeovil-weather.me.uk/

High Low Average
Temperature 54.7°F12.6°C 48.7°F9.3°C 50.9°F10.5°C
Dew Point 53.2°F11.8°C 47.9°F8.8°C 49.6°F9.8°C
Winds 2.3 mph 3.7 kmh Calm Calm Calm WCalm W
Wind Gusts 6.9 mph11.1 kmh -- 1.0 mph1.6 kmh
Humidity 98% 91% 95%
Pressure 30.66 in1038.3 mb 30.55 in1034.5 mb -
Precipitation 0.04 in1.0 mm - -
Hour Temp Dew Point Humidity Winds Wind Gusts Pressure Precip Precip Rate Daily Precip Total
12:00 AM 49.7°F9.8°C 48.0°F8.9°C 94% Calm Calm -- 30.59 in1035.9 mb - 0.00 in0.0 mm 0.00 in0.0 mm
12:10 AM 49.7°F9.8°C 48.3°F9.1°C 95% Calm Calm -- 30.59 in1035.9 mb - 0.00 in0.0 mm 0.00 in0.0 mm
12:20 AM 49.7°F9.8°C 48.3°F9.1°C 95% Calm Calm -- 30.60 in1036.2 mb - 0.00 in0.0 mm 0.00 in0.0 mm
12:30 AM 49.7°F9.8°C 48.3°F9.1°C 95% 1.2 mph SW1.9 kmh SW 3.5 mph5.6 kmh 30.59 in1035.9 mb - 0.00 in0.0 mm 0.00 in0.0 mm
12:40 AM 49.8°F9.9°C 48.4°F9.1°C 95% 1.2 mph SW1.9 kmh SW 1.2 mph1.9 kmh 30.59 in1035.9 mb - 0.00 in0.0 mm 0.00 in0.0 mm
12:50 AM 49.8°F9.9°C 48.4°F9.1°C 95% Calm Calm -- 30.59 in1035.9 mb - 0.00 in0.0 mm 0.00 in0.0 mm
01:00 AM 49.8°F9.9°C 48.7°F9.3°C 96% Calm Calm -- 30.59 in1035.9 mb - 0.00 in0.0 mm 0.00 in0.0 mm
01:10 AM 49.8°F9.9°C 48.7°F9.3°C 96% Calm Calm -- 30.59 in1035.9 mb - 0.00 in0.0 mm 0.00 in0.0 mm
01:20 AM 49.8°F9.9°C 48.7°F9.3°C 96% Calm Calm 2.3 mph3.7 kmh 30.59 in1035.9 mb - 0.00 in0.0 mm 0.00 in0.0 mm
01:30 AM 49.8°F9.9°C 48.7°F9.3°C 96% Calm Calm -- 30.59 in1035.9 mb - 0.00 in0.0 mm 0.00 in0.0 mm
01:40 AM 49.9°F9.9°C 48.8°F9.3°C 96% Calm Calm -- 30.58 in1035.6 mb - 0.00 in0.0 mm 0.00 in0.0 mm
01:50 AM 49.9°F9.9°C 48.8°F9.3°C 96% Calm Calm -- 30.58 in1035.6 mb - 0.00 in0.0 mm 0.00 in0.0 mm
02:00 AM 49.9°F9.9°C 48.8°F9.3°C 96% Calm Calm -- 30.58 in1035.6 mb - 0.00 in0.0 mm 0.00 in0.0 mm
02:10 AM 49.9°F9.9°C 48.8°F9.3°C 96% 1.2 mph SW1.9 kmh SW 2.3 mph3.7 kmh 30.58 in1035.6 mb - 0.00 in0.0 mm 0.00 in0.0 mm
02:20 AM 49.9°F9.9°C 48.8°F9.3°C 96% Calm Calm 1.2 mph1.9 kmh 30.58 in1035.6 mb - 0.00 in0.0 mm 0.00 in0.0 mm
02:30 AM 49.9°F9.9°C 48.8°F9.3°C 96% Calm Calm 1.2 mph1.9 kmh 30.58 in1035.6 mb - 0.00 in0.0 mm 0.00 in0.0 mm
02:40 AM 49.9°F9.9°C 48.8°F9.3°C 96% 2.3 mph SW3.7 kmh SW 3.5 mph5.6 kmh 30.58 in1035.6 mb - 0.00 in0.0 mm 0.00 in0.0 mm
02:50 AM 49.8°F9.9°C 48.7°F9.3°C 96% 1.2 mph SW1.9 kmh SW 4.6 mph7.4 kmh 30.57 in1035.2 mb - 0.00 in0.0 mm 0.00 in0.0 mm
03:00 AM 49.9°F9.9°C 48.8°F9.3°C 96% Calm Calm -- 30.58 in1035.6 mb - 0.00 in0.0 mm 0.00 in0.0 mm
03:10 AM 49.9°F9.9°C 48.8°F9.3°C 96% 1.2 mph SW1.9 kmh SW 3.5 mph5.6 kmh 30.57 in1035.2 mb - 0.00 in0.0 mm 0.00 in0.0 mm
03:30 AM 49.8°F9.9°C 48.7°F9.3°C 96% 1.2 mph SW1.9 kmh SW 3.5 mph5.6 kmh 30.57 in1035.2 mb - 0.01 in0.3 mm 0.01 in0.3 mm
03:50 AM 49.9°F9.9°C 49.1°F9.5°C 97% 1.2 mph SW1.9 kmh SW 2.3 mph3.7 kmh 30.57 in1035.2 mb - 0.01 in0.3 mm 0.02 in0.5 mm
04:00 AM 49.9°F9.9°C 48.8°F9.3°C 96% Calm Calm -- 30.56 in1034.9 mb - 0.01 in0.3 mm 0.02 in0.5 mm
04:10 AM 49.9°F9.9°C 48.8°F9.3°C 96% Calm Calm -- 30.56 in1034.9 mb - 0.00 in0.0 mm 0.02 in0.5 mm
04:20 AM 49.8°F9.9°C 48.7°F9.3°C 96% Calm Calm -- 30.56 in1034.9 mb - 0.00 in0.0 mm 0.02 in0.5 mm
04:30 AM 49.7°F9.8°C 48.6°F9.2°C 96% Calm Calm -- 30.56 in1034.9 mb - 0.00 in0.0 mm 0.02 in0.5 mm
04:40 AM 49.7°F9.8°C 48.9°F9.4°C 97% Calm Calm -- 30.56 in1034.9 mb - 0.00 in0.0 mm 0.02 in0.5 mm
04:50 AM 49.8°F9.9°C 48.9°F9.4°C 97% 2.3 mph S3.7 kmh S 3.5 mph5.6 kmh 30.55 in1034.5 mb - 0.00 in0.0 mm 0.02 in0.5 mm
05:00 AM 49.8°F9.9°C 49.0°F9.4°C 97% 2.3 mph SSW3.7 kmh SSW 4.6 mph7.4 kmh 30.55 in1034.5 mb - 0.00 in0.0 mm 0.02 in0.5 mm
05:10 AM 49.8°F9.9°C 49.0°F9.4°C 97% 1.2 mph SW1.9 kmh SW 4.6 mph7.4 kmh 30.55 in1034.5 mb - 0.00 in0.0 mm 0.02 in0.5 mm
05:20 AM 49.7°F9.8°C 48.9°F9.4°C 97% 1.2 mph SW1.9 kmh SW 3.5 mph5.6 kmh 30.55 in1034.5 mb - 0.00 in0.0 mm 0.02 in0.5 mm
05:30 AM 49.7°F9.8°C 48.9°F9.4°C 97% 1.2 mph SW1.9 kmh SW 4.6 mph7.4 kmh 30.55 in1034.5 mb - 0.00 in0.0 mm 0.02 in0.5 mm
05:40 AM 49.7°F9.8°C 48.9°F9.4°C 97% Calm Calm 1.2 mph1.9 kmh 30.55 in1034.5 mb - 0.00 in0.0 mm 0.02 in0.5 mm
05:50 AM 49.6°F9.8°C 48.8°F9.3°C 97% 1.2 mph SSW1.9 kmh SSW 3.5 mph5.6 kmh 30.55 in1034.5 mb - 0.00 in0.0 mm 0.02 in0.5 mm
06:00 AM 49.6°F9.8°C 48.8°F9.3°C 97% 1.2 mph SSW1.9 kmh SSW 4.6 mph7.4 kmh 30.55 in1034.5 mb - 0.00 in0.0 mm 0.02 in0.5 mm
06:10 AM 49.6°F9.8°C 48.8°F9.3°C 97% 1.2 mph SSW1.9 kmh SSW 6.9 mph11.1 kmh 30.56 in1034.9 mb - 0.01 in0.3 mm 0.03 in0.8 mm
06:20 AM 49.6°F9.8°C 48.8°F9.3°C 97% Calm Calm 4.6 mph7.4 kmh 30.56 in1034.9 mb - 0.01 in0.3 mm 0.03 in0.8 mm
06:30 AM 49.6°F9.8°C 48.8°F9.3°C 97% 1.2 mph SW1.9 kmh SW 6.9 mph11.1 kmh 30.56 in1034.9 mb - 0.00 in0.0 mm 0.03 in0.8 mm
06:40 AM 49.6°F9.8°C 48.8°F9.3°C 97% 1.2 mph SSW1.9 kmh SSW 3.5 mph5.6 kmh 30.56 in1034.9 mb - 0.00 in0.0 mm 0.03 in0.8 mm
06:50 AM 49.6°F9.8°C 48.8°F9.3°C 97% 1.2 mph SSW1.9 kmh SSW 2.3 mph3.7 kmh 30.56 in1034.9 mb - 0.00 in0.0 mm 0.03 in0.8 mm
07:00 AM 49.7°F9.8°C 48.9°F9.4°C 97% Calm Calm -- 30.56 in1034.9 mb - 0.00 in0.0 mm 0.03 in0.8 mm
07:10 AM 49.7°F9.8°C 48.8°F9.3°C 97% 1.2 mph SSW1.9 kmh SSW 3.5 mph5.6 kmh 30.56 in1034.9 mb - 0.00 in0.0 mm 0.03 in0.8 mm
07:20 AM 49.6°F9.8°C 48.8°F9.3°C 97% Calm Calm -- 30.56 in1034.9 mb - 0.00 in0.0 mm 0.03 in0.8 mm
07:30 AM 49.5°F9.7°C 48.7°F9.3°C 97% 1.2 mph SW1.9 kmh SW 4.6 mph7.4 kmh 30.56 in1034.9 mb - 0.00 in0.0 mm 0.03 in0.8 mm
07:40 AM 49.4°F9.7°C 48.6°F9.2°C 97% Calm Calm -- 30.56 in1034.9 mb - 0.00 in0.0 mm 0.03 in0.8 mm
07:50 AM 49.3°F9.6°C 48.5°F9.2°C 97% Calm Calm -- 30.56 in1034.9 mb - 0.00 in0.0 mm 0.03 in0.8 mm
08:00 AM 49.1°F9.5°C 48.0°F8.9°C 96% Calm Calm -- 30.57 in1035.2 mb - 0.00 in0.0 mm 0.03 in0.8 mm
08:10 AM 48.9°F9.4°C 48.1°F8.9°C 97% Calm Calm -- 30.57 in1035.2 mb - 0.00 in0.0 mm 0.03 in0.8 mm
08:20 AM 48.8°F9.3°C 48.0°F8.9°C 97% Calm Calm -- 30.57 in1035.2 mb - 0.00 in0.0 mm 0.03 in0.8 mm
08:30 AM 48.8°F9.3°C 48.0°F8.9°C 97% Calm Calm -- 30.58 in1035.6 mb - 0.00 in0.0 mm 0.03 in0.8 mm
08:40 AM 48.8°F9.3°C 48.0°F8.9°C 97% Calm Calm -- 30.58 in1035.6 mb - 0.00 in0.0 mm 0.03 in0.8 mm
08:50 AM 48.7°F9.3°C 47.9°F8.8°C 97% Calm Calm -- 30.58 in1035.6 mb - 0.00 in0.0 mm 0.03 in0.8 mm
09:00 AM 48.8°F9.3°C 48.0°F8.9°C 97% Calm Calm -- 30.58 in1035.6 mb - 0.00 in0.0 mm 0.03 in0.8 mm
09:10 AM 49.0°F9.4°C 48.2°F9.0°C 97% Calm Calm -- 30.58 in1035.6 mb - 0.00 in0.0 mm 0.03 in0.8 mm
09:20 AM 49.1°F9.5°C 48.3°F9.1°C 97% Calm Calm -- 30.58 in1035.6 mb - 0.00 in0.0 mm 0.03 in0.8 mm
09:30 AM 49.4°F9.7°C 48.6°F9.2°C 97% Calm Calm -- 30.58 in1035.6 mb - 0.00 in0.0 mm 0.03 in0.8 mm
09:40 AM 49.7°F9.8°C 48.9°F9.4°C 97% Calm Calm -- 30.59 in1035.9 mb - 0.00 in0.0 mm 0.03 in0.8 mm
09:50 AM 49.9°F9.9°C 49.1°F9.5°C 97% Calm Calm -- 30.59 in1035.9 mb - 0.00 in0.0 mm 0.03 in0.8 mm
10:00 AM 50.5°F10.3°C 49.9°F9.9°C 98% Calm Calm -- 30.59 in1035.9 mb - 0.00 in0.0 mm 0.03 in0.8 mm
10:10 AM 51.1°F10.6°C 50.6°F10.3°C 98% Calm Calm 1.2 mph1.9 kmh 30.59 in1035.9 mb - 0.00 in0.0 mm 0.03 in0.8 mm
10:20 AM 51.4°F10.8°C 50.6°F10.3°C 97% Calm Calm -- 30.60 in1036.2 mb - 0.00 in0.0 mm 0.03 in0.8 mm
10:30 AM 51.6°F10.9°C 50.8°F10.4°C 97% Calm Calm -- 30.60 in1036.2 mb - 0.00 in0.0 mm 0.03 in0.8 mm
10:40 AM 51.7°F10.9°C 50.9°F10.5°C 97% Calm Calm -- 30.60 in1036.2 mb - 0.00 in0.0 mm 0.03 in0.8 mm
10:50 AM 51.8°F11.0°C 50.9°F10.5°C 97% Calm Calm -- 30.60 in1036.2 mb - 0.00 in0.0 mm 0.03 in0.8 mm
11:00 AM 51.9°F11.1°C 51.1°F10.6°C 97% Calm Calm -- 30.59 in1035.9 mb - 0.00 in0.0 mm 0.03 in0.8 mm
11:10 AM 52.5°F11.4°C 51.6°F10.9°C 97% Calm Calm -- 30.59 in1035.9 mb - 0.00 in0.0 mm 0.03 in0.8 mm
11:20 AM 53.2°F11.8°C 52.4°F11.3°C 97% Calm Calm -- 30.59 in1035.9 mb - 0.00 in0.0 mm 0.03 in0.8 mm
11:30 AM 54.1°F12.3°C 53.2°F11.8°C 97% Calm Calm -- 30.59 in1035.9 mb - 0.00 in0.0 mm 0.03 in0.8 mm
11:40 AM 54.2°F12.3°C 52.8°F11.6°C 95% Calm Calm -- 30.59 in1035.9 mb - 0.00 in0.0 mm 0.03 in0.8 mm
11:50 AM 54.6°F12.6°C 52.9°F11.6°C 94% Calm Calm 2.3 mph3.7 kmh 30.59 in1035.9 mb - 0.00 in0.0 mm 0.03 in0.8 mm
12:00 PM 54.7°F12.6°C 52.4°F11.3°C 92% Calm Calm -- 30.59 in1035.9 mb - 0.00 in0.0 mm 0.03 in0.8 mm
12:10 PM 54.7°F12.6°C 52.1°F11.2°C 91% Calm Calm -- 30.59 in1035.9 mb - 0.00 in0.0 mm 0.03 in0.8 mm
12:20 PM 54.6°F12.6°C 52.0°F11.1°C 91% 1.2 mph SW1.9 kmh SW 3.5 mph5.6 kmh 30.59 in1035.9 mb - 0.00 in0.0 mm 0.03 in0.8 mm
12:30 PM 54.4°F12.4°C 51.8°F11.0°C 91% Calm Calm -- 30.59 in1035.9 mb - 0.00 in0.0 mm 0.03 in0.8 mm
12:40 PM 54.2°F12.3°C 51.6°F10.9°C 91% 1.2 mph SW1.9 kmh SW 3.5 mph5.6 kmh 30.60 in1036.2 mb - 0.00 in0.0 mm 0.03 in0.8 mm
12:50 PM 54.2°F12.3°C 51.6°F10.9°C 91% 2.3 mph NW3.7 kmh NW 4.6 mph7.4 kmh 30.60 in1036.2 mb - 0.00 in0.0 mm 0.03 in0.8 mm
01:00 PM 54.2°F12.3°C 51.6°F10.9°C 91% Calm Calm 2.3 mph3.7 kmh 30.59 in1035.9 mb - 0.00 in0.0 mm 0.03 in0.8 mm
01:10 PM 54.1°F12.3°C 51.6°F10.9°C 91% Calm Calm -- 30.59 in1035.9 mb - 0.00 in0.0 mm 0.03 in0.8 mm
01:20 PM 54.1°F12.3°C 51.6°F10.9°C 91% Calm Calm -- 30.59 in1035.9 mb - 0.00 in0.0 mm 0.03 in0.8 mm
01:30 PM 54.1°F12.3°C 51.5°F10.8°C 91% Calm Calm -- 30.59 in1035.9 mb - 0.00 in0.0 mm 0.03 in0.8 mm
01:40 PM 53.9°F12.2°C 51.3°F10.7°C 91% Calm Calm -- 30.59 in1035.9 mb - 0.00 in0.0 mm 0.03 in0.8 mm
01:50 PM 53.8°F12.1°C 51.5°F10.8°C 92% Calm Calm -- 30.59 in1035.9 mb - 0.00 in0.0 mm 0.03 in0.8 mm
02:00 PM 53.6°F12.0°C 51.3°F10.7°C 92% Calm Calm -- 30.60 in1036.2 mb - 0.00 in0.0 mm 0.03 in0.8 mm
02:10 PM 53.3°F11.8°C 51.0°F10.6°C 92% Calm Calm -- 30.59 in1035.9 mb - 0.00 in0.0 mm 0.03 in0.8 mm
02:20 PM 53.2°F11.8°C 51.2°F10.7°C 93% Calm Calm -- 30.59 in1035.9 mb - 0.00 in0.0 mm 0.03 in0.8 mm
02:30 PM 53.1°F11.7°C 51.1°F10.6°C 93% Calm Calm -- 30.59 in1035.9 mb - 0.00 in0.0 mm 0.03 in0.8 mm
02:40 PM 53.0°F11.7°C 51.0°F10.6°C 93% Calm Calm -- 30.60 in1036.2 mb - 0.00 in0.0 mm 0.03 in0.8 mm
02:50 PM 53.0°F11.7°C 51.0°F10.6°C 93% Calm Calm -- 30.60 in1036.2 mb - 0.00 in0.0 mm 0.03 in0.8 mm
03:00 PM 52.8°F11.6°C 50.9°F10.5°C 93% Calm Calm -- 30.60 in1036.2 mb - 0.00 in0.0 mm 0.03 in0.8 mm
03:10 PM 52.7°F11.5°C 50.7°F10.4°C 93% Calm Calm -- 30.60 in1036.2 mb - 0.00 in0.0 mm 0.03 in0.8 mm
03:20 PM 52.6°F11.4°C 50.6°F10.3°C 93% Calm Calm -- 30.60 in1036.2 mb - 0.00 in0.0 mm 0.03 in0.8 mm
03:30 PM 52.6°F11.4°C 50.6°F10.3°C 93% Calm Calm -- 30.60 in1036.2 mb - 0.00 in0.0 mm 0.03 in0.8 mm
03:40 PM 52.6°F11.4°C 50.9°F10.5°C 94% Calm Calm -- 30.59 in1035.9 mb - 0.00 in0.0 mm 0.03 in0.8 mm
03:50 PM 52.5°F11.4°C 50.8°F10.4°C 94% Calm Calm -- 30.60 in1036.2 mb - 0.00 in0.0 mm 0.03 in0.8 mm
04:00 PM 52.4°F11.3°C 50.7°F10.4°C 94% Calm Calm -- 30.60 in1036.2 mb - 0.00 in0.0 mm 0.03 in0.8 mm
04:10 PM 52.3°F11.3°C 50.6°F10.3°C 94% Calm Calm -- 30.60 in1036.2 mb - 0.00 in0.0 mm 0.03 in0.8 mm
04:20 PM 52.1°F11.2°C 50.1°F10.1°C 93% Calm Calm -- 30.60 in1036.2 mb - 0.00 in0.0 mm 0.03 in0.8 mm
04:30 PM 51.9°F11.1°C 49.9°F9.9°C 93% Calm Calm -- 30.61 in1036.6 mb - 0.00 in0.0 mm 0.03 in0.8 mm
04:40 PM 51.7°F10.9°C 50.0°F10.0°C 94% Calm Calm -- 30.61 in1036.6 mb - 0.00 in0.0 mm 0.03 in0.8 mm
04:50 PM 51.8°F11.0°C 50.1°F10.1°C 94% Calm Calm -- 30.61 in1036.6 mb - 0.00 in0.0 mm 0.03 in0.8 mm
05:00 PM 51.7°F10.9°C 50.0°F10.0°C 94% Calm Calm -- 30.62 in1036.9 mb - 0.00 in0.0 mm 0.03 in0.8 mm
05:10 PM 51.7°F10.9°C 50.0°F10.0°C 94% Calm Calm -- 30.62 in1036.9 mb - 0.00 in0.0 mm 0.03 in0.8 mm
05:20 PM 51.7°F10.9°C 50.3°F10.2°C 95% Calm Calm -- 30.62 in1036.9 mb - 0.00 in0.0 mm 0.03 in0.8 mm
05:30 PM 51.7°F10.9°C 50.3°F10.2°C 95% Calm Calm -- 30.62 in1036.9 mb - 0.00 in0.0 mm 0.03 in0.8 mm
05:40 PM 51.6°F10.9°C 49.9°F9.9°C 94% Calm Calm -- 30.62 in1036.9 mb - 0.00 in0.0 mm 0.03 in0.8 mm
05:50 PM 51.5°F10.8°C 49.8°F9.9°C 94% Calm Calm -- 30.62 in1036.9 mb - 0.00 in0.0 mm 0.03 in0.8 mm
06:00 PM 51.5°F10.8°C 50.1°F10.1°C 95% Calm Calm -- 30.62 in1036.9 mb - 0.00 in0.0 mm 0.03 in0.8 mm
06:10 PM 51.4°F10.8°C 50.0°F10.0°C 95% Calm Calm -- 30.62 in1036.9 mb - 0.00 in0.0 mm 0.03 in0.8 mm
06:20 PM 51.4°F10.8°C 50.0°F10.0°C 95% Calm Calm -- 30.63 in1037.3 mb - 0.00 in0.0 mm 0.03 in0.8 mm
06:30 PM 51.4°F10.8°C 50.0°F10.0°C 95% Calm Calm -- 30.63 in1037.3 mb - 0.00 in0.0 mm 0.03 in0.8 mm
06:40 PM 51.4°F10.8°C 50.0°F10.0°C 95% Calm Calm -- 30.63 in1037.3 mb - 0.00 in0.0 mm 0.03 in0.8 mm
06:50 PM 51.4°F10.8°C 50.0°F10.0°C 95% Calm Calm -- 30.63 in1037.3 mb - 0.00 in0.0 mm 0.03 in0.8 mm
07:00 PM 51.4°F10.8°C 50.0°F10.0°C 95% Calm Calm -- 30.63 in1037.3 mb - 0.00 in0.0 mm 0.03 in0.8 mm
07:10 PM 51.4°F10.8°C 50.0°F10.0°C 95% Calm Calm -- 30.63 in1037.3 mb - 0.00 in0.0 mm 0.03 in0.8 mm
07:20 PM 51.4°F10.8°C 50.0°F10.0°C 95% Calm Calm -- 30.63 in1037.3 mb - 0.00 in0.0 mm 0.03 in0.8 mm
07:30 PM 51.2°F10.7°C 49.8°F9.9°C 95% Calm Calm -- 30.63 in1037.3 mb - 0.00 in0.0 mm 0.03 in0.8 mm
07:40 PM 51.0°F10.6°C 49.6°F9.8°C 95% Calm Calm 2.3 mph3.7 kmh 30.63 in1037.3 mb - 0.01 in0.3 mm 0.04 in1.0 mm
07:50 PM 50.8°F10.4°C 49.4°F9.7°C 95% Calm Calm -- 30.63 in1037.3 mb - 0.00 in0.0 mm 0.04 in1.0 mm
08:00 PM 50.6°F10.3°C 49.2°F9.6°C 95% 1.2 mph NNW1.9 kmh NNW 2.3 mph3.7 kmh 30.64 in1037.6 mb - 0.00 in0.0 mm 0.04 in1.0 mm
08:10 PM 50.4°F10.2°C 49.3°F9.6°C 96% Calm Calm -- 30.64 in1037.6 mb - 0.00 in0.0 mm 0.04 in1.0 mm
08:20 PM 50.2°F10.1°C 48.9°F9.4°C 95% Calm Calm -- 30.64 in1037.6 mb - 0.00 in0.0 mm 0.04 in1.0 mm
08:40 PM 50.0°F10.0°C 48.9°F9.4°C 96% Calm Calm -- 30.64 in1037.6 mb - 0.00 in0.0 mm 0.04 in1.0 mm
08:50 PM 49.9°F9.9°C 48.8°F9.3°C 96% Calm Calm -- 30.64 in1037.6 mb - 0.00 in0.0 mm 0.04 in1.0 mm
09:00 PM 49.8°F9.9°C 48.7°F9.3°C 96% Calm Calm -- 30.64 in1037.6 mb - 0.00 in0.0 mm 0.04 in1.0 mm
09:10 PM 49.7°F9.8°C 48.6°F9.2°C 96% 1.2 mph NW1.9 kmh NW 2.3 mph3.7 kmh 30.64 in1037.6 mb - 0.00 in0.0 mm 0.04 in1.0 mm
09:20 PM 49.7°F9.8°C 48.6°F9.2°C 96% Calm Calm 2.3 mph3.7 kmh 30.65 in1037.9 mb - 0.00 in0.0 mm 0.04 in1.0 mm
09:30 PM 49.7°F9.8°C 48.6°F9.2°C 96% 1.2 mph NW1.9 kmh NW 1.2 mph1.9 kmh 30.65 in1037.9 mb - 0.00 in0.0 mm 0.04 in1.0 mm
09:50 PM 49.6°F9.8°C 48.5°F9.2°C 96% Calm Calm -- 30.65 in1037.9 mb - 0.00 in0.0 mm 0.04 in1.0 mm
10:00 PM 49.6°F9.8°C 48.5°F9.2°C 96% Calm Calm -- 30.65 in1037.9 mb - 0.00 in0.0 mm 0.04 in1.0 mm
10:10 PM 49.5°F9.7°C 48.4°F9.1°C 96% Calm Calm -- 30.65 in1037.9 mb - 0.00 in0.0 mm 0.04 in1.0 mm
10:20 PM 49.5°F9.7°C 48.4°F9.1°C 96% Calm Calm 1.2 mph1.9 kmh 30.65 in1037.9 mb - 0.00 in0.0 mm 0.04 in1.0 mm
10:30 PM 49.5°F9.7°C 48.4°F9.1°C 96% 1.2 mph NW1.9 kmh NW 2.3 mph3.7 kmh 30.65 in1037.9 mb - 0.00 in0.0 mm 0.04 in1.0 mm
10:40 PM 49.5°F9.7°C 48.7°F9.3°C 97% Calm Calm -- 30.65 in1037.9 mb - 0.00 in0.0 mm 0.04 in1.0 mm
11:00 PM 49.4°F9.7°C 48.6°F9.2°C 97% Calm Calm -- 30.65 in1037.9 mb - 0.00 in0.0 mm 0.04 in1.0 mm
11:10 PM 49.4°F9.7°C 48.3°F9.1°C 96% Calm Calm -- 30.65 in1037.9 mb - 0.00 in0.0 mm 0.04 in1.0 mm
11:20 PM 49.3°F9.6°C 48.2°F9.0°C 96% Calm Calm -- 30.66 in1038.3 mb - 0.00 in0.0 mm 0.04 in1.0 mm
11:30 PM 49.2°F9.6°C 48.1°F8.9°C 96% Calm Calm -- 30.65 in1037.9 mb - 0.00 in0.0 mm 0.04 in1.0 mm
11:40 PM 49.2°F9.6°C 48.1°F8.9°C 96% Calm Calm -- 30.65 in1037.9 mb - 0.00 in0.0 mm 0.04 in1.0 mm
11:50 PM 49.1°F9.5°C 48.3°F9.1°C 97% Calm Calm -- 30.65 in1037.9 mb - 0.00 in0.0 mm 0.04 in1.0 mm